sensor_id;sensor_type;location;lat;lon;timestamp;temperature;humidity
19060;DHT22;9663;48.996;8.334;2023-09-12T00:01:36;23.20;52.20
19060;DHT22;9663;48.996;8.334;2023-09-12T00:04:02;23.20;52.20
19060;DHT22;9663;48.996;8.334;2023-09-12T00:06:28;23.10;52.10
19060;DHT22;9663;48.996;8.334;2023-09-12T00:08:53;23.10;52.10
19060;DHT22;9663;48.996;8.334;2023-09-12T00:11:19;23.10;52.10
19060;DHT22;9663;48.996;8.334;2023-09-12T00:13:45;23.10;52.20
19060;DHT22;9663;48.996;8.334;2023-09-12T00:16:11;23.00;52.20
19060;DHT22;9663;48.996;8.334;2023-09-12T00:18:39;23.00;52.40
19060;DHT22;9663;48.996;8.334;2023-09-12T00:21:05;22.90;52.70
19060;DHT22;9663;48.996;8.334;2023-09-12T00:23:31;22.90;52.50
19060;DHT22;9663;48.996;8.334;2023-09-12T00:25:57;22.90;52.70
19060;DHT22;9663;48.996;8.334;2023-09-12T00:28:23;22.80;52.70
19060;DHT22;9663;48.996;8.334;2023-09-12T00:30:49;22.80;52.80
19060;DHT22;9663;48.996;8.334;2023-09-12T00:33:15;22.80;52.80
19060;DHT22;9663;48.996;8.334;2023-09-12T00:35:41;22.80;52.90
19060;DHT22;9663;48.996;8.334;2023-09-12T00:38:08;22.80;52.90
19060;DHT22;9663;48.996;8.334;2023-09-12T00:40:34;22.80;53.00
19060;DHT22;9663;48.996;8.334;2023-09-12T00:42:59;22.80;53.00
19060;DHT22;9663;48.996;8.334;2023-09-12T00:45:25;22.70;53.00
19060;DHT22;9663;48.996;8.334;2023-09-12T00:47:51;22.70;53.20
19060;DHT22;9663;48.996;8.334;2023-09-12T00:50:20;22.70;53.30
19060;DHT22;9663;48.996;8.334;2023-09-12T00:52:48;22.70;53.50
19060;DHT22;9663;48.996;8.334;2023-09-12T00:55:15;22.70;53.40
19060;DHT22;9663;48.996;8.334;2023-09-12T00:57:41;22.70;53.50
19060;DHT22;9663;48.996;8.334;2023-09-12T01:00:07;22.60;53.40
19060;DHT22;9663;48.996;8.334;2023-09-12T01:02:42;22.60;53.50
19060;DHT22;9663;48.996;8.334;2023-09-12T01:05:10;22.60;54.00
19060;DHT22;9663;48.996;8.334;2023-09-12T01:07:37;22.60;53.60
19060;DHT22;9663;48.996;8.334;2023-09-12T01:10:05;22.50;53.70
19060;DHT22;9663;48.996;8.334;2023-09-12T01:12:32;22.50;53.70
19060;DHT22;9663;48.996;8.334;2023-09-12T01:14:57;22.50;53.70
19060;DHT22;9663;48.996;8.334;2023-09-12T01:17:24;22.50;53.90
19060;DHT22;9663;48.996;8.334;2023-09-12T01:19:50;22.40;54.00
19060;DHT22;9663;48.996;8.334;2023-09-12T01:27:57;22.40;54.60
19060;DHT22;9663;48.996;8.334;2023-09-12T01:30:25;22.40;54.00
19060;DHT22;9663;48.996;8.334;2023-09-12T01:32:53;22.40;54.00
19060;DHT22;9663;48.996;8.334;2023-09-12T01:35:20;22.40;54.10
19060;DHT22;9663;48.996;8.334;2023-09-12T01:37:46;22.30;54.10
19060;DHT22;9663;48.996;8.334;2023-09-12T01:40:12;22.30;54.20
19060;DHT22;9663;48.996;8.334;2023-09-12T01:42:43;22.30;54.30
19060;DHT22;9663;48.996;8.334;2023-09-12T01:45:15;22.20;54.70
19060;DHT22;9663;48.996;8.334;2023-09-12T01:47:45;22.20;54.50
19060;DHT22;9663;48.996;8.334;2023-09-12T01:50:12;22.20;54.60
19060;DHT22;9663;48.996;8.334;2023-09-12T01:52:40;22.20;54.60
19060;DHT22;9663;48.996;8.334;2023-09-12T01:55:07;22.20;54.70
19060;DHT22;9663;48.996;8.334;2023-09-12T01:57:36;22.10;54.80
19060;DHT22;9663;48.996;8.334;2023-09-12T02:00:03;22.10;54.90
19060;DHT22;9663;48.996;8.334;2023-09-12T02:02:29;22.20;55.00
19060;DHT22;9663;48.996;8.334;2023-09-12T02:05:16;22.20;55.00
19060;DHT22;9663;48.996;8.334;2023-09-12T02:07:44;22.20;55.90
19060;DHT22;9663;48.996;8.334;2023-09-12T02:10:11;22.20;54.90
19060;DHT22;9663;48.996;8.334;2023-09-12T02:12:38;22.20;55.00
19060;DHT22;9663;48.996;8.334;2023-09-12T02:15:05;22.10;55.00
19060;DHT22;9663;48.996;8.334;2023-09-12T02:17:31;22.10;55.00
19060;DHT22;9663;48.996;8.334;2023-09-12T02:19:58;22.10;55.10
19060;DHT22;9663;48.996;8.334;2023-09-12T02:22:23;22.10;55.20
19060;DHT22;9663;48.996;8.334;2023-09-12T02:24:50;22.10;55.30
19060;DHT22;9663;48.996;8.334;2023-09-12T02:27:15;22.10;55.40
19060;DHT22;9663;48.996;8.334;2023-09-12T02:29:42;22.10;55.30
19060;DHT22;9663;48.996;8.334;2023-09-12T02:32:08;22.00;55.30
19060;DHT22;9663;48.996;8.334;2023-09-12T02:34:34;22.00;55.40
19060;DHT22;9663;48.996;8.334;2023-09-12T02:37:00;22.00;55.40
19060;DHT22;9663;48.996;8.334;2023-09-12T02:39:26;22.00;55.60
19060;DHT22;9663;48.996;8.334;2023-09-12T02:41:52;21.90;55.60
19060;DHT22;9663;48.996;8.334;2023-09-12T02:44:17;21.90;55.70
19060;DHT22;9663;48.996;8.334;2023-09-12T02:46:43;21.90;55.70
19060;DHT22;9663;48.996;8.334;2023-09-12T02:49:09;21.90;55.80
19060;DHT22;9663;48.996;8.334;2023-09-12T02:51:38;21.90;56.00
19060;DHT22;9663;48.996;8.334;2023-09-12T02:54:05;21.90;56.40
19060;DHT22;9663;48.996;8.334;2023-09-12T02:56:31;21.90;56.00
19060;DHT22;9663;48.996;8.334;2023-09-12T02:58:57;21.90;56.10
19060;DHT22;9663;48.996;8.334;2023-09-12T03:01:22;21.90;56.10
19060;DHT22;9663;48.996;8.334;2023-09-12T03:03:50;21.90;56.20
19060;DHT22;9663;48.996;8.334;2023-09-12T03:06:16;21.90;56.30
19060;DHT22;9663;48.996;8.334;2023-09-12T03:08:43;22.00;56.40
19060;DHT22;9663;48.996;8.334;2023-09-12T03:11:10;21.90;56.40
19060;DHT22;9663;48.996;8.334;2023-09-12T03:13:41;22.00;56.40
19060;DHT22;9663;48.996;8.334;2023-09-12T03:16:11;22.00;56.80
19060;DHT22;9663;48.996;8.334;2023-09-12T03:18:37;22.00;56.80
19060;DHT22;9663;48.996;8.334;2023-09-12T03:21:03;22.00;56.50
19060;DHT22;9663;48.996;8.334;2023-09-12T03:23:28;22.00;56.50
19060;DHT22;9663;48.996;8.334;2023-09-12T03:25:54;22.10;56.60
19060;DHT22;9663;48.996;8.334;2023-09-12T03:28:20;22.10;56.70
19060;DHT22;9663;48.996;8.334;2023-09-12T03:30:47;22.10;56.70
19060;DHT22;9663;48.996;8.334;2023-09-12T03:33:12;22.10;56.80
19060;DHT22;9663;48.996;8.334;2023-09-12T03:35:38;22.10;56.70
19060;DHT22;9663;48.996;8.334;2023-09-12T03:38:03;22.10;56.70
19060;DHT22;9663;48.996;8.334;2023-09-12T03:40:30;22.10;56.70
19060;DHT22;9663;48.996;8.334;2023-09-12T03:42:57;22.20;56.70
19060;DHT22;9663;48.996;8.334;2023-09-12T03:45:23;22.20;56.70
19060;DHT22;9663;48.996;8.334;2023-09-12T03:47:50;22.20;56.80
19060;DHT22;9663;48.996;8.334;2023-09-12T03:50:16;22.20;56.80
19060;DHT22;9663;48.996;8.334;2023-09-12T03:52:42;22.20;56.80
19060;DHT22;9663;48.996;8.334;2023-09-12T03:55:08;22.20;56.70
19060;DHT22;9663;48.996;8.334;2023-09-12T03:57:34;22.10;56.70
19060;DHT22;9663;48.996;8.334;2023-09-12T04:00:00;22.20;56.80
19060;DHT22;9663;48.996;8.334;2023-09-12T04:02:25;22.10;56.80
19060;DHT22;9663;48.996;8.334;2023-09-12T04:04:51;22.10;56.80
19060;DHT22;9663;48.996;8.334;2023-09-12T04:07:17;22.10;56.80
19060;DHT22;9663;48.996;8.334;2023-09-12T04:09:43;22.10;56.90
19060;DHT22;9663;48.996;8.334;2023-09-12T04:12:09;22.10;57.00
19060;DHT22;9663;48.996;8.334;2023-09-12T04:14:35;22.00;57.00
19060;DHT22;9663;48.996;8.334;2023-09-12T04:17:01;22.00;57.00
19060;DHT22;9663;48.996;8.334;2023-09-12T04:19:28;22.00;57.10
19060;DHT22;9663;48.996;8.334;2023-09-12T04:21:53;22.00;57.10
19060;DHT22;9663;48.996;8.334;2023-09-12T04:24:19;22.00;57.10
19060;DHT22;9663;48.996;8.334;2023-09-12T04:26:46;22.00;57.10
19060;DHT22;9663;48.996;8.334;2023-09-12T04:29:12;21.90;57.10
19060;DHT22;9663;48.996;8.334;2023-09-12T04:31:37;21.90;57.20
19060;DHT22;9663;48.996;8.334;2023-09-12T04:34:03;21.90;57.30
19060;DHT22;9663;48.996;8.334;2023-09-12T04:36:30;21.90;57.30
19060;DHT22;9663;48.996;8.334;2023-09-12T04:38:55;21.90;57.40
19060;DHT22;9663;48.996;8.334;2023-09-12T04:41:21;21.90;57.50
19060;DHT22;9663;48.996;8.334;2023-09-12T04:43:47;21.90;57.50
19060;DHT22;9663;48.996;8.334;2023-09-12T04:46:12;21.90;57.60
19060;DHT22;9663;48.996;8.334;2023-09-12T04:48:38;21.90;57.60
19060;DHT22;9663;48.996;8.334;2023-09-12T04:51:04;21.90;57.60
19060;DHT22;9663;48.996;8.334;2023-09-12T04:53:30;21.90;57.70
19060;DHT22;9663;48.996;8.334;2023-09-12T04:56:03;21.90;57.70
19060;DHT22;9663;48.996;8.334;2023-09-12T04:58:32;21.90;57.70
19060;DHT22;9663;48.996;8.334;2023-09-12T05:00:58;21.90;57.70
19060;DHT22;9663;48.996;8.334;2023-09-12T05:03:23;21.90;57.70
19060;DHT22;9663;48.996;8.334;2023-09-12T05:05:50;21.90;57.80
19060;DHT22;9663;48.996;8.334;2023-09-12T05:08:16;21.90;57.80
19060;DHT22;9663;48.996;8.334;2023-09-12T05:10:46;21.90;57.80
19060;DHT22;9663;48.996;8.334;2023-09-12T05:13:12;21.90;58.00
19060;DHT22;9663;48.996;8.334;2023-09-12T05:15:39;21.90;57.90
19060;DHT22;9663;48.996;8.334;2023-09-12T05:18:06;21.90;57.90
19060;DHT22;9663;48.996;8.334;2023-09-12T05:20:33;21.90;58.00
19060;DHT22;9663;48.996;8.334;2023-09-12T05:22:59;21.90;58.00
19060;DHT22;9663;48.996;8.334;2023-09-12T05:25:25;21.90;58.00
19060;DHT22;9663;48.996;8.334;2023-09-12T05:27:52;21.90;58.10
19060;DHT22;9663;48.996;8.334;2023-09-12T05:30:18;21.90;58.10
19060;DHT22;9663;48.996;8.334;2023-09-12T05:32:44;21.90;58.10
19060;DHT22;9663;48.996;8.334;2023-09-12T05:35:09;21.90;58.20
19060;DHT22;9663;48.996;8.334;2023-09-12T05:37:35;21.90;58.10
19060;DHT22;9663;48.996;8.334;2023-09-12T05:40:01;21.90;58.10
19060;DHT22;9663;48.996;8.334;2023-09-12T05:42:27;21.90;58.10
19060;DHT22;9663;48.996;8.334;2023-09-12T05:44:52;21.90;58.20
19060;DHT22;9663;48.996;8.334;2023-09-12T05:47:22;21.90;58.20
19060;DHT22;9663;48.996;8.334;2023-09-12T05:49:48;21.90;58.30
19060;DHT22;9663;48.996;8.334;2023-09-12T05:52:14;21.80;58.30
19060;DHT22;9663;48.996;8.334;2023-09-12T05:54:40;21.80;58.40
19060;DHT22;9663;48.996;8.334;2023-09-12T05:57:07;21.90;58.50
19060;DHT22;9663;48.996;8.334;2023-09-12T05:59:36;21.90;58.60
19060;DHT22;9663;48.996;8.334;2023-09-12T06:02:04;21.90;58.80
19060;DHT22;9663;48.996;8.334;2023-09-12T06:04:32;21.90;59.20
19060;DHT22;9663;48.996;8.334;2023-09-12T06:06:58;21.90;58.60
19060;DHT22;9663;48.996;8.334;2023-09-12T06:09:24;22.00;58.60
19060;DHT22;9663;48.996;8.334;2023-09-12T06:11:50;22.00;58.60
19060;DHT22;9663;48.996;8.334;2023-09-12T06:14:16;22.00;58.60
19060;DHT22;9663;48.996;8.334;2023-09-12T06:16:42;22.10;58.70
19060;DHT22;9663;48.996;8.334;2023-09-12T06:19:07;22.20;58.70
19060;DHT22;9663;48.996;8.334;2023-09-12T06:21:33;22.20;58.60
19060;DHT22;9663;48.996;8.334;2023-09-12T06:24:28;22.30;58.70
19060;DHT22;9663;48.996;8.334;2023-09-12T06:26:53;22.30;59.30
19060;DHT22;9663;48.996;8.334;2023-09-12T06:29:19;22.30;58.60
19060;DHT22;9663;48.996;8.334;2023-09-12T06:31:45;22.40;58.60
19060;DHT22;9663;48.996;8.334;2023-09-12T06:34:10;22.40;58.60
19060;DHT22;9663;48.996;8.334;2023-09-12T06:36:36;22.40;58.70
19060;DHT22;9663;48.996;8.334;2023-09-12T06:39:03;22.50;58.70
19060;DHT22;9663;48.996;8.334;2023-09-12T06:41:32;22.50;58.70
19060;DHT22;9663;48.996;8.334;2023-09-12T06:43:57;22.60;58.70
19060;DHT22;9663;48.996;8.334;2023-09-12T06:46:24;22.70;58.70
19060;DHT22;9663;48.996;8.334;2023-09-12T06:48:50;22.70;58.80
19060;DHT22;9663;48.996;8.334;2023-09-12T06:51:17;22.80;58.80
19060;DHT22;9663;48.996;8.334;2023-09-12T06:53:42;22.80;58.60
19060;DHT22;9663;48.996;8.334;2023-09-12T06:56:08;22.90;58.70
19060;DHT22;9663;48.996;8.334;2023-09-12T06:58:34;23.00;58.70
19060;DHT22;9663;48.996;8.334;2023-09-12T07:01:04;23.10;58.80
19060;DHT22;9663;48.996;8.334;2023-09-12T07:03:32;23.20;58.90
19060;DHT22;9663;48.996;8.334;2023-09-12T07:05:59;23.30;58.80
19060;DHT22;9663;48.996;8.334;2023-09-12T07:08:26;23.40;58.70
19060;DHT22;9663;48.996;8.334;2023-09-12T07:10:52;23.50;58.70
19060;DHT22;9663;48.996;8.334;2023-09-12T07:13:23;23.60;58.60
19060;DHT22;9663;48.996;8.334;2023-09-12T07:15:50;23.70;58.60
19060;DHT22;9663;48.996;8.334;2023-09-12T07:18:16;23.80;58.60
19060;DHT22;9663;48.996;8.334;2023-09-12T07:20:42;23.90;58.50
19060;DHT22;9663;48.996;8.334;2023-09-12T07:23:08;24.00;58.40
19060;DHT22;9663;48.996;8.334;2023-09-12T07:25:38;24.20;58.50
19060;DHT22;9663;48.996;8.334;2023-09-12T07:28:06;24.30;58.50
19060;DHT22;9663;48.996;8.334;2023-09-12T07:30:32;24.40;58.20
19060;DHT22;9663;48.996;8.334;2023-09-12T07:32:58;24.50;58.10
19060;DHT22;9663;48.996;8.334;2023-09-12T07:35:24;24.70;58.20
19060;DHT22;9663;48.996;8.334;2023-09-12T07:37:50;24.90;58.10
19060;DHT22;9663;48.996;8.334;2023-09-12T07:40:16;25.00;57.90
19060;DHT22;9663;48.996;8.334;2023-09-12T07:42:41;25.20;57.80
19060;DHT22;9663;48.996;8.334;2023-09-12T07:45:08;25.30;57.60
19060;DHT22;9663;48.996;8.334;2023-09-12T07:47:34;25.50;57.50
19060;DHT22;9663;48.996;8.334;2023-09-12T07:50:00;25.60;57.40
19060;DHT22;9663;48.996;8.334;2023-09-12T07:52:26;25.80;57.30
19060;DHT22;9663;48.996;8.334;2023-09-12T07:54:52;25.90;57.80
19060;DHT22;9663;48.996;8.334;2023-09-12T07:57:25;26.00;57.10
19060;DHT22;9663;48.996;8.334;2023-09-12T07:59:50;26.10;57.00
19060;DHT22;9663;48.996;8.334;2023-09-12T08:02:16;26.20;56.80
19060;DHT22;9663;48.996;8.334;2023-09-12T08:04:41;26.40;56.70
19060;DHT22;9663;48.996;8.334;2023-09-12T08:07:07;26.50;56.60
19060;DHT22;9663;48.996;8.334;2023-09-12T08:09:53;26.60;56.50
19060;DHT22;9663;48.996;8.334;2023-09-12T08:12:21;26.80;56.20
19060;DHT22;9663;48.996;8.334;2023-09-12T08:14:48;26.90;56.20
19060;DHT22;9663;48.996;8.334;2023-09-12T08:17:15;27.00;56.00
19060;DHT22;9663;48.996;8.334;2023-09-12T08:19:41;27.10;55.90
19060;DHT22;9663;48.996;8.334;2023-09-12T08:22:08;27.20;55.90
19060;DHT22;9663;48.996;8.334;2023-09-12T08:24:35;27.40;55.90
19060;DHT22;9663;48.996;8.334;2023-09-12T08:27:02;27.40;55.70
19060;DHT22;9663;48.996;8.334;2023-09-12T08:29:29;27.50;55.50
19060;DHT22;9663;48.996;8.334;2023-09-12T08:31:55;27.60;55.30
19060;DHT22;9663;48.996;8.334;2023-09-12T08:34:21;27.70;55.20
19060;DHT22;9663;48.996;8.334;2023-09-12T08:36:47;27.80;55.20
19060;DHT22;9663;48.996;8.334;2023-09-12T08:39:14;27.80;55.00
19060;DHT22;9663;48.996;8.334;2023-09-12T08:41:42;27.90;54.80
19060;DHT22;9663;48.996;8.334;2023-09-12T08:44:09;27.90;54.40
19060;DHT22;9663;48.996;8.334;2023-09-12T08:46:35;27.90;54.20
19060;DHT22;9663;48.996;8.334;2023-09-12T08:49:04;27.80;54.00
19060;DHT22;9663;48.996;8.334;2023-09-12T08:51:31;27.80;54.10
19060;DHT22;9663;48.996;8.334;2023-09-12T08:53:57;27.80;54.10
19060;DHT22;9663;48.996;8.334;2023-09-12T08:56:23;27.90;54.20
19060;DHT22;9663;48.996;8.334;2023-09-12T08:58:50;28.00;54.00
19060;DHT22;9663;48.996;8.334;2023-09-12T09:01:18;28.00;53.90
19060;DHT22;9663;48.996;8.334;2023-09-12T09:03:45;28.00;53.90
19060;DHT22;9663;48.996;8.334;2023-09-12T09:06:12;28.10;54.00
19060;DHT22;9663;48.996;8.334;2023-09-12T09:08:41;28.20;54.00
19060;DHT22;9663;48.996;8.334;2023-09-12T09:11:09;28.30;53.90
19060;DHT22;9663;48.996;8.334;2023-09-12T09:13:36;28.40;54.10
19060;DHT22;9663;48.996;8.334;2023-09-12T09:16:17;28.60;54.00
19060;DHT22;9663;48.996;8.334;2023-09-12T09:18:59;28.70;53.30
19060;DHT22;9663;48.996;8.334;2023-09-12T09:21:36;28.80;53.20
19060;DHT22;9663;48.996;8.334;2023-09-12T09:24:13;28.90;53.20
19060;DHT22;9663;48.996;8.334;2023-09-12T09:29:18;28.90;53.00
19060;DHT22;9663;48.996;8.334;2023-09-12T09:31:47;29.00;52.70
19060;DHT22;9663;48.996;8.334;2023-09-12T09:34:16;28.90;52.80
19060;DHT22;9663;48.996;8.334;2023-09-12T09:36:48;28.90;52.60
19060;DHT22;9663;48.996;8.334;2023-09-12T09:39:19;28.90;52.60
19060;DHT22;9663;48.996;8.334;2023-09-12T09:41:54;29.00;52.70
19060;DHT22;9663;48.996;8.334;2023-09-12T09:44:22;29.10;52.70
19060;DHT22;9663;48.996;8.334;2023-09-12T09:46:54;29.20;52.80
19060;DHT22;9663;48.996;8.334;2023-09-12T09:49:23;29.30;52.80
19060;DHT22;9663;48.996;8.334;2023-09-12T09:51:49;29.40;52.60
19060;DHT22;9663;48.996;8.334;2023-09-12T09:54:15;29.60;52.30
19060;DHT22;9663;48.996;8.334;2023-09-12T09:56:54;29.70;52.10
19060;DHT22;9663;48.996;8.334;2023-09-12T09:59:22;29.80;51.50
19060;DHT22;9663;48.996;8.334;2023-09-12T10:01:59;29.80;51.70
19060;DHT22;9663;48.996;8.334;2023-09-12T10:04:28;29.90;51.40
19060;DHT22;9663;48.996;8.334;2023-09-12T10:06:57;30.00;51.60
19060;DHT22;9663;48.996;8.334;2023-09-12T10:09:26;30.10;51.60
19060;DHT22;9663;48.996;8.334;2023-09-12T10:11:54;30.10;51.40
19060;DHT22;9663;48.996;8.334;2023-09-12T10:14:22;30.20;51.30
19060;DHT22;9663;48.996;8.334;2023-09-12T10:16:50;30.20;50.80
19060;DHT22;9663;48.996;8.334;2023-09-12T10:19:29;30.20;50.80
19060;DHT22;9663;48.996;8.334;2023-09-12T10:25:03;30.40;50.50
19060;DHT22;9663;48.996;8.334;2023-09-12T10:27:29;30.50;50.70
19060;DHT22;9663;48.996;8.334;2023-09-12T10:29:57;30.60;50.40
19060;DHT22;9663;48.996;8.334;2023-09-12T10:32:25;30.60;50.30
19060;DHT22;9663;48.996;8.334;2023-09-12T10:34:54;30.70;50.40
19060;DHT22;9663;48.996;8.334;2023-09-12T10:37:25;30.80;50.30
19060;DHT22;9663;48.996;8.334;2023-09-12T10:39:54;30.90;50.30
19060;DHT22;9663;48.996;8.334;2023-09-12T10:42:22;31.00;50.30
19060;DHT22;9663;48.996;8.334;2023-09-12T10:44:50;31.20;50.10
19060;DHT22;9663;48.996;8.334;2023-09-12T10:47:17;31.30;50.00
19060;DHT22;9663;48.996;8.334;2023-09-12T10:49:44;31.40;49.80
19060;DHT22;9663;48.996;8.334;2023-09-12T10:52:10;31.60;49.90
19060;DHT22;9663;48.996;8.334;2023-09-12T10:54:49;31.70;49.70
19060;DHT22;9663;48.996;8.334;2023-09-12T10:57:14;31.90;49.50
19060;DHT22;9663;48.996;8.334;2023-09-12T11:02:28;32.10;48.50
19060;DHT22;9663;48.996;8.334;2023-09-12T11:07:59;32.40;48.40
19060;DHT22;9663;48.996;8.334;2023-09-12T11:10:27;32.50;48.70
19060;DHT22;9663;48.996;8.334;2023-09-12T11:12:57;32.70;48.60
19060;DHT22;9663;48.996;8.334;2023-09-12T11:15:25;32.90;48.20
19060;DHT22;9663;48.996;8.334;2023-09-12T11:18:05;33.10;48.30
19060;DHT22;9663;48.996;8.334;2023-09-12T11:20:50;33.30;47.00
19060;DHT22;9663;48.996;8.334;2023-09-12T11:23:18;33.60;47.30
19060;DHT22;9663;48.996;8.334;2023-09-12T11:25:45;34.10;47.80
19060;DHT22;9663;48.996;8.334;2023-09-12T11:28:11;34.70;47.20
19060;DHT22;9663;48.996;8.334;2023-09-12T11:30:36;35.30;46.90
19060;DHT22;9663;48.996;8.334;2023-09-12T11:33:24;35.90;45.80
19060;DHT22;9663;48.996;8.334;2023-09-12T11:35:53;36.60;45.20
19060;DHT22;9663;48.996;8.334;2023-09-12T11:38:27;37.10;44.30
19060;DHT22;9663;48.996;8.334;2023-09-12T11:40:55;37.60;42.80
19060;DHT22;9663;48.996;8.334;2023-09-12T11:43:26;38.20;43.70
19060;DHT22;9663;48.996;8.334;2023-09-12T11:45:54;38.60;41.80
19060;DHT22;9663;48.996;8.334;2023-09-12T11:48:21;39.00;41.90
19060;DHT22;9663;48.996;8.334;2023-09-12T11:50:52;39.40;41.10
19060;DHT22;9663;48.996;8.334;2023-09-12T11:53:21;39.70;39.80
19060;DHT22;9663;48.996;8.334;2023-09-12T11:55:53;39.90;39.60
19060;DHT22;9663;48.996;8.334;2023-09-12T11:58:21;40.20;39.30
19060;DHT22;9663;48.996;8.334;2023-09-12T12:00:49;40.50;39.20
19060;DHT22;9663;48.996;8.334;2023-09-12T12:03:18;40.70;37.60
19060;DHT22;9663;48.996;8.334;2023-09-12T12:05:47;40.80;37.60
19060;DHT22;9663;48.996;8.334;2023-09-12T12:08:14;41.00;37.20
19060;DHT22;9663;48.996;8.334;2023-09-12T12:10:42;41.20;37.20
19060;DHT22;9663;48.996;8.334;2023-09-12T12:13:12;41.40;37.10
19060;DHT22;9663;48.996;8.334;2023-09-12T12:15:41;41.70;36.00
19060;DHT22;9663;48.996;8.334;2023-09-12T12:18:07;42.00;36.30
19060;DHT22;9663;48.996;8.334;2023-09-12T12:20:33;42.20;35.40
19060;DHT22;9663;48.996;8.334;2023-09-12T12:22:59;42.30;35.00
19060;DHT22;9663;48.996;8.334;2023-09-12T12:25:24;42.50;34.60
19060;DHT22;9663;48.996;8.334;2023-09-12T12:27:50;42.50;34.00
19060;DHT22;9663;48.996;8.334;2023-09-12T12:30:16;42.60;34.20
19060;DHT22;9663;48.996;8.334;2023-09-12T12:32:44;42.60;32.90
19060;DHT22;9663;48.996;8.334;2023-09-12T12:35:21;42.60;32.60
19060;DHT22;9663;48.996;8.334;2023-09-12T12:37:53;42.70;31.60
19060;DHT22;9663;48.996;8.334;2023-09-12T12:40:20;42.80;31.60
19060;DHT22;9663;48.996;8.334;2023-09-12T12:42:46;42.90;32.30
19060;DHT22;9663;48.996;8.334;2023-09-12T12:45:14;43.20;32.30
19060;DHT22;9663;48.996;8.334;2023-09-12T12:47:41;43.40;32.10
19060;DHT22;9663;48.996;8.334;2023-09-12T12:50:17;43.80;32.10
19060;DHT22;9663;48.996;8.334;2023-09-12T12:52:47;44.30;30.60
19060;DHT22;9663;48.996;8.334;2023-09-12T12:55:14;44.70;31.20
19060;DHT22;9663;48.996;8.334;2023-09-12T12:57:45;45.00;30.50
19060;DHT22;9663;48.996;8.334;2023-09-12T13:00:17;45.40;30.00
19060;DHT22;9663;48.996;8.334;2023-09-12T13:02:45;45.60;28.90
19060;DHT22;9663;48.996;8.334;2023-09-12T13:05:23;45.70;28.90
19060;DHT22;9663;48.996;8.334;2023-09-12T13:07:57;45.70;27.80
19060;DHT22;9663;48.996;8.334;2023-09-12T13:10:23;45.90;28.90
19060;DHT22;9663;48.996;8.334;2023-09-12T13:12:49;45.90;28.60
19060;DHT22;9663;48.996;8.334;2023-09-12T13:15:16;46.10;28.00
19060;DHT22;9663;48.996;8.334;2023-09-12T13:17:43;46.20;27.90
19060;DHT22;9663;48.996;8.334;2023-09-12T13:20:09;46.20;27.80
19060;DHT22;9663;48.996;8.334;2023-09-12T13:22:36;46.10;27.60
19060;DHT22;9663;48.996;8.334;2023-09-12T13:25:04;45.90;27.60
19060;DHT22;9663;48.996;8.334;2023-09-12T13:27:30;45.50;27.60
19060;DHT22;9663;48.996;8.334;2023-09-12T13:29:56;45.20;27.50
19060;DHT22;9663;48.996;8.334;2023-09-12T13:32:21;44.80;27.40
19060;DHT22;9663;48.996;8.334;2023-09-12T13:34:47;44.30;27.20
19060;DHT22;9663;48.996;8.334;2023-09-12T13:37:13;43.80;27.30
19060;DHT22;9663;48.996;8.334;2023-09-12T13:39:42;43.30;27.50
19060;DHT22;9663;48.996;8.334;2023-09-12T13:42:13;42.90;27.70
19060;DHT22;9663;48.996;8.334;2023-09-12T13:44:39;42.70;28.10
19060;DHT22;9663;48.996;8.334;2023-09-12T13:47:05;42.80;28.30
19060;DHT22;9663;48.996;8.334;2023-09-12T13:49:31;43.10;28.30
19060;DHT22;9663;48.996;8.334;2023-09-12T13:51:56;43.60;28.30
19060;DHT22;9663;48.996;8.334;2023-09-12T13:54:22;44.20;28.30
19060;DHT22;9663;48.996;8.334;2023-09-12T13:56:48;44.70;27.80
19060;DHT22;9663;48.996;8.334;2023-09-12T13:59:13;45.00;27.30
19060;DHT22;9663;48.996;8.334;2023-09-12T14:01:39;45.20;26.90
19060;DHT22;9663;48.996;8.334;2023-09-12T14:04:05;45.20;26.50
19060;DHT22;9663;48.996;8.334;2023-09-12T14:06:32;45.00;26.30
19060;DHT22;9663;48.996;8.334;2023-09-12T14:08:59;44.80;26.10
19060;DHT22;9663;48.996;8.334;2023-09-12T14:11:24;44.70;26.10
19060;DHT22;9663;48.996;8.334;2023-09-12T14:13:50;44.70;26.50
19060;DHT22;9663;48.996;8.334;2023-09-12T14:16:16;44.90;26.60
19060;DHT22;9663;48.996;8.334;2023-09-12T14:18:41;45.30;26.60
19060;DHT22;9663;48.996;8.334;2023-09-12T14:21:07;45.60;26.30
19060;DHT22;9663;48.996;8.334;2023-09-12T14:23:32;45.90;25.80
19060;DHT22;9663;48.996;8.334;2023-09-12T14:25:58;46.20;25.50
19060;DHT22;9663;48.996;8.334;2023-09-12T14:28:24;46.60;25.30
19060;DHT22;9663;48.996;8.334;2023-09-12T14:30:50;46.90;25.00
19060;DHT22;9663;48.996;8.334;2023-09-12T14:33:15;47.20;24.80
19060;DHT22;9663;48.996;8.334;2023-09-12T14:35:44;47.40;24.40
19060;DHT22;9663;48.996;8.334;2023-09-12T14:38:10;47.60;24.20
19060;DHT22;9663;48.996;8.334;2023-09-12T14:40:36;47.60;24.00
19060;DHT22;9663;48.996;8.334;2023-09-12T14:43:03;47.80;24.00
19060;DHT22;9663;48.996;8.334;2023-09-12T14:45:29;48.00;23.70
19060;DHT22;9663;48.996;8.334;2023-09-12T14:47:56;48.10;23.40
19060;DHT22;9663;48.996;8.334;2023-09-12T14:50:23;48.30;23.20
19060;DHT22;9663;48.996;8.334;2023-09-12T14:52:50;48.40;23.00
19060;DHT22;9663;48.996;8.334;2023-09-12T14:55:16;48.40;22.60
19060;DHT22;9663;48.996;8.334;2023-09-12T14:57:42;48.50;22.70
19060;DHT22;9663;48.996;8.334;2023-09-12T15:00:08;48.50;22.60
19060;DHT22;9663;48.996;8.334;2023-09-12T15:02:33;48.70;22.50
19060;DHT22;9663;48.996;8.334;2023-09-12T15:05:00;48.80;22.20
19060;DHT22;9663;48.996;8.334;2023-09-12T15:07:28;49.00;22.10
19060;DHT22;9663;48.996;8.334;2023-09-12T15:09:55;49.20;21.90
19060;DHT22;9663;48.996;8.334;2023-09-12T15:12:21;49.30;21.90
19060;DHT22;9663;48.996;8.334;2023-09-12T15:14:46;49.30;21.30
19060;DHT22;9663;48.996;8.334;2023-09-12T15:17:12;49.40;21.30
19060;DHT22;9663;48.996;8.334;2023-09-12T15:19:38;49.60;21.10
19060;DHT22;9663;48.996;8.334;2023-09-12T15:22:03;49.50;21.00
19060;DHT22;9663;48.996;8.334;2023-09-12T15:24:29;49.70;20.90
19060;DHT22;9663;48.996;8.334;2023-09-12T15:26:55;49.70;20.70
19060;DHT22;9663;48.996;8.334;2023-09-12T15:29:21;49.80;20.70
19060;DHT22;9663;48.996;8.334;2023-09-12T15:31:46;49.90;20.80
19060;DHT22;9663;48.996;8.334;2023-09-12T15:34:12;50.00;20.70
19060;DHT22;9663;48.996;8.334;2023-09-12T15:36:44;49.90;20.50
19060;DHT22;9663;48.996;8.334;2023-09-12T15:39:11;49.90;19.90
19060;DHT22;9663;48.996;8.334;2023-09-12T15:41:37;49.90;20.10
19060;DHT22;9663;48.996;8.334;2023-09-12T15:44:03;49.80;20.10
19060;DHT22;9663;48.996;8.334;2023-09-12T15:46:29;49.70;19.90
19060;DHT22;9663;48.996;8.334;2023-09-12T15:48:55;49.60;19.80
19060;DHT22;9663;48.996;8.334;2023-09-12T15:51:21;49.20;19.40
19060;DHT22;9663;48.996;8.334;2023-09-12T15:53:47;48.70;19.40
19060;DHT22;9663;48.996;8.334;2023-09-12T15:56:13;48.00;19.40
19060;DHT22;9663;48.996;8.334;2023-09-12T15:58:39;47.40;19.30
19060;DHT22;9663;48.996;8.334;2023-09-12T16:01:05;46.60;19.50
19060;DHT22;9663;48.996;8.334;2023-09-12T16:03:34;45.90;19.60